• Join FlightAware (Why Join?)
  • Login
  • US Flag 
04:37AM EDT


 

Airport Tracker/Info


-or-


 

Live Flight TrackerFlight Track Log ✈ UAL252 ✈ 12-Jun-2013 ✈ KLAX - KEWR

Flight Track Log - Related Links

Times and Time Zones

All times are in EDT time to prevent confusion due to time zone crossing. See the UAL252 flight status page for this flight to view local times or setup timezone preferences in your user account.

Time Position Orientation Groundspeed Altitude Reporting Facility
EDT Latitude Longitude Course Direction KTS MPH feet Rate Location/Type
01:48PM 33.9361 -118.4208 59° Northeast 159 183 31,000  Level Los Angeles Center
01:49PM 33.9278 -118.4808 261° West 195 224 2,400 -12,480 Descending Los Angeles Center
01:50PM 33.8939 -118.5542 241° Southwest 244 281 5,300 2,460 Climbing Los Angeles Center
01:51PM 34.1274 -118.0786 59° Northeast  Level FlightAware Approximate
01:51PM 33.8469 -118.5117 143° Southeast 251 289 7,600  Level Los Angeles Center
01:52PM 34.1941 -117.9451 59° Northeast  Level FlightAware Approximate
01:52PM 33.9014 -118.4506 43° Northeast 279 321 9,700  Level Los Angeles Center
01:53PM 34.2719 -117.8229 59° Northeast  Level FlightAware Approximate
01:54PM 34.3387 -117.6892 59° Northeast  Level FlightAware Approximate
01:54PM 33.9667 -118.3781 43° Northeast 323 372 12,000  Level Los Angeles Center
01:55PM 34.0342 -118.2556 56° Northeast 366 421 13,900 1,620 Climbing Los Angeles Center
01:56PM 34.1003 -118.1403 55° Northeast 410 472 15,700 1,980 Climbing Los Angeles Center
01:57PM 34.1797 -117.9978 56° Northeast 424 488 18,100 1,980 Climbing Los Angeles Center
01:58PM 34.2486 -117.8767 55° Northeast 435 501 19,800 1,500 Climbing Los Angeles Center
01:59PM 34.3197 -117.7494 56° Northeast 452 520 21,300 1,440 Climbing Los Angeles Center
02:00PM 34.3956 -117.6100 57° Northeast 470 541 22,900 1,380 Climbing Los Angeles Center
02:01PM 34.4694 -117.4775 56° Northeast 478 550 24,200 1,200 Climbing Los Angeles Center
02:02PM 34.5497 -117.3447 54° Northeast 488 562 25,400 1,140 Climbing Los Angeles Center
02:03PM 34.6431 -117.2175 48° Northeast 504 580 26,600 1,500 Climbing Los Angeles Center
02:04PM 34.7569 -117.0578 49° Northeast 513 590 28,500 1,680 Climbing Los Angeles Center
02:05PM 34.8469 -116.9314 49° Northeast 512 589 30,100 1,200 Climbing Los Angeles Center
02:06PM 34.9397 -116.8008 49° Northeast 512 589 31,000 420 Climbing Los Angeles Center
02:07PM 35.0322 -116.6694 49° Northeast 511 588 31,000  Level Los Angeles Center
02:08PM 35.1253 -116.5378 49° Northeast 515 593 31,000  Level Los Angeles Center
02:09PM 35.2358 -116.3819 49° Northeast 511 588 31,000  Level Los Angeles Center
02:10PM 35.3286 -116.2506 49° Northeast 511 588 31,000  Level Los Angeles Center
02:11PM 35.4186 -116.1167 50° Northeast 512 589 31,000  Level Los Angeles Center
02:12PM 35.5133 -115.9861 48° Northeast 512 589 31,000 -60 Level Los Angeles Center
02:14PM 35.6328 -115.8108 50° Northeast 508 585 30,900 -60 Descending Los Angeles Center
02:15PM 35.7242 -115.6800 49° Northeast 506 582 30,900  Level Los Angeles Center
02:16PM 35.8150 -115.5483 50° Northeast 505 581 30,900  Level Los Angeles Center
02:17PM 35.9058 -115.4144 50° Northeast 512 589 31,000  Climbing Los Angeles Center
02:18PM 36.0133 -115.2581 50° Northeast 502 578 30,900 60 Descending Los Angeles Center
02:19PM 36.1058 -115.1314 48° Northeast 501 577 31,200 480 Climbing Los Angeles Center
02:20PM 36.2119 -115.0153 41° Northeast 510 587 32,000 780 Climbing Los Angeles Center
02:21PM 36.3097 -114.8892 46° Northeast 512 589 32,900 900 Climbing Los Angeles Center
02:22PM 36.4283 -114.7306 47° Northeast 521 600 33,900 960 Climbing Los Angeles Center
02:23PM 36.5225 -114.5944 49° Northeast 522 601 34,900 480 Climbing Los Angeles Center
02:24PM 36.5994 -114.4439 57° Northeast 518 596 34,900  Level Los Angeles Center
02:25PM 36.6603 -114.3222 58° Northeast 518 596 34,900  Level Los Angeles Center
02:26PM 36.7453 -114.1531 58° Northeast 515 593 34,900  Level Los Angeles Center
02:27PM 36.8267 -113.9931 58° Northeast 510 587 34,900  Level Los Angeles Center
02:28PM 36.9114 -113.8250 58° Northeast 509 586 34,900  Level Los Angeles Center
02:29PM 36.9872 -113.6753 58° Northeast 510 587 34,900  Level Los Angeles Center
02:30PM 37.0636 -113.5253 57° Northeast 512 589 35,000  Climbing Los Angeles Center
02:31PM 37.1539 -113.3439 58° Northeast 513 590 35,000  Level Los Angeles Center
02:32PM 37.2294 -113.1919 58° Northeast 514 592 35,000  Level Los Angeles Center
02:33PM 37.3044 -113.0400 58° Northeast 515 593 35,000  Level Los Angeles Center
02:34PM 37.3792 -112.8892 58° Northeast 516 594 35,000  Level Los Angeles Center
02:35PM 37.4656 -112.7086 59° Northeast 517 595 35,000  Level Salt Lake Center
02:36PM 37.5394 -112.5586 58° Northeast 514 592 35,000 -60 Level Salt Lake Center
02:37PM 37.6139 -112.4094 58° Northeast 510 587 34,900 -60 Descending Salt Lake Center
02:39PM 37.6878 -112.2578 58° Northeast 510 587 34,900  Level Salt Lake Center
02:40PM 37.7756 -112.0731 59° Northeast 512 589 34,900  Level Salt Lake Center
02:41PM 37.8497 -111.9189 59° Northeast 516 594 35,000  Climbing Salt Lake Center
02:42PM 37.9228 -111.7650 59° Northeast 513 590 35,000  Level Salt Lake Center
02:43PM 37.9953 -111.6108 59° Northeast 510 587 35,000 -60 Level Salt Lake Center
02:44PM 38.0683 -111.4572 59° Northeast 510 587 34,900 -60 Descending Salt Lake Center
02:45PM 38.1400 -111.3014 60° Northeast 512 589 34,900  Level Salt Lake Center
02:46PM 38.2264 -111.1161 59° Northeast 510 587 35,000  Climbing Salt Lake Center
02:47PM 38.2989 -110.9617 59° Northeast 511 588 35,000  Level Salt Lake Center
02:48PM 38.3703 -110.8053 60° Northeast 508 585 35,000 -120 Level Salt Lake Center
02:48PM 38.3922 -110.7556 61° Northeast 507 583 34,900 -120 Descending Denver Center
02:49PM 38.4344 -110.6528 62° Northeast 511 588 34,900 60 Level Salt Lake Center
02:49PM 38.4569 -110.5700 71° East 510 587 35,000 60 Climbing Denver Center
02:50PM 38.5006 -110.4044 71° East 512 589 35,000  Level Denver Center
02:51PM 38.5336 -110.2992 68° East 508 585 35,000  Level Salt Lake Center
02:52PM 38.5864 -110.1086 70° East 510 587 35,000  Level Salt Lake Center
02:52PM 38.6014 -110.0531 71° East 509 586 35,000  Level Denver Center
02:53PM 38.6319 -109.9467 70° East 507 583 35,000  Level Salt Lake Center
02:53PM 38.6542 -109.8639 71° East 509 586 35,000 -120 Level Denver Center
02:54PM 38.6986 -109.7031 70° East 503 579 34,900 -60 Descending Denver Center
02:55PM 38.7425 -109.5372 71° East 514 592 34,900  Level Denver Center
02:56PM 38.7944 -109.3486 70° East 506 582 34,900  Level Denver Center
02:57PM 38.8403 -109.1867 70° East 505 581 35,000  Climbing Denver Center
02:58PM 38.8914 -108.9989 71° East 502 578 35,000 -60 Level Denver Center
03:00PM 38.9344 -108.8378 71° East 499 574 34,900 -60 Descending Denver Center
03:01PM 38.9861 -108.6514 70° East 498 573 34,900  Level Denver Center
03:02PM 39.0289 -108.4903 71° East 498 573 34,900  Level Denver Center
03:03PM 39.0794 -108.2983 71° East 508 585 35,000  Climbing Denver Center
03:04PM 39.1239 -108.1336 71° East 508 585 35,000 -60 Level Denver Center
03:05PM 39.1733 -107.9428 71° East 506 582 34,900  Descending Denver Center
03:06PM 39.2150 -107.7797 72° East 503 579 35,000  Climbing Denver Center
03:07PM 39.2653 -107.5869 71° East 509 586 35,000  Level Denver Center
03:08PM 39.2997 -107.4489 72° East 509 586 35,000  Level Denver Center
03:09PM 39.3489 -107.2550 72° East 508 585 35,000 -60 Level Denver Center
03:10PM 39.3972 -107.0628 72° East 506 582 34,900  Descending Denver Center
03:11PM 39.4353 -106.8981 73° East 500 575 35,000  Climbing Denver Center
03:12PM 39.4681 -106.6997 78° East 504 580 34,900  Descending Denver Center
03:13PM 39.4936 -106.5294 79° East 504 580 35,000  Climbing Denver Center
03:14PM 39.5225 -106.3336 79° East 504 580 34,900  Descending Denver Center
03:15PM 39.5492 -106.1553 79° East 502 578 35,000  Climbing Denver Center
03:16PM 39.5756 -105.9661 80° East 498 573 35,000 -60 Level Denver Center
03:17PM 39.6022 -105.7861 79° East 516 594 34,900 -60 Descending Denver Center
03:18PM 39.6261 -105.6075 80° East 506 582 34,900  Level Denver Center
03:19PM 39.6500 -105.4283 80° East 501 577 34,900  Level Denver Center
03:20PM 39.6739 -105.2483 80° East 499 574 35,000  Climbing Denver Center
03:21PM 39.7019 -105.0347 80° East 494 568 34,900 -60 Descending Denver Center
03:22PM 39.7244 -104.8558 81° East 500 575 34,900  Level Denver Center
03:23PM 39.7531 -104.6744 78° East 506 582 35,000  Climbing Denver Center
03:24PM 39.7711 -104.5275 81° East 491 565 35,000 -60 Level Denver Center
03:25PM 39.8006 -104.2792 81° East 487 560 34,900 -60 Descending Denver Center
03:27PM 39.8239 -104.1008 80° East 492 566 34,900  Level Denver Center
03:28PM 39.8428 -103.9228 82° East 493 567 35,000  Climbing Denver Center
03:29PM 39.8656 -103.7453 80° East 486 559 34,900  Descending Denver Center
03:30PM 39.8822 -103.6031 81° East 492 566 35,000  Climbing Denver Center
03:31PM 39.9086 -103.3883 81° East 503 579 35,000  Level Denver Center
03:32PM 39.9294 -103.2097 81° East 501 577 35,000 -60 Level Denver Center
03:33PM 39.9539 -102.9958 81° East 497 572 34,900 -60 Descending Denver Center
03:34PM 39.9706 -102.8531 81° East 498 573 34,900  Level Denver Center
03:35PM 39.9956 -102.6286 82° East 501 577 34,900  Level Denver Center
03:36PM 40.0139 -102.4561 82° East 502 578 35,000  Climbing Denver Center
03:37PM 40.0364 -102.2550 82° East 503 579 34,900  Descending Denver Center
03:38PM 40.0583 -102.0522 82° East 507 583 35,000  Climbing Denver Center
03:39PM 40.0803 -101.8475 82° East 510 587 35,000  Level Denver Center
03:40PM 40.0983 -101.6731 82° East 509 586 35,000 -60 Level Denver Center
03:41PM 40.1181 -101.4700 83° East 506 582 34,900 -60 Descending Denver Center
03:42PM 40.1358 -101.2969 82° East 505 581 34,900  Level Denver Center
03:43PM 40.1553 -101.0961 83° East 503 579 34,900  Level Denver Center
03:44PM 40.1722 -100.9247 83° East 501 577 34,900  Level Denver Center
03:45PM 40.1911 -100.7219 83° East 505 581 35,000  Climbing Denver Center
03:46PM 40.2058 -100.5486 84° East 504 580 35,000  Level Denver Center
03:47PM 40.2094 -100.3722 88° East 507 583 35,000 -60 Level Denver Center
03:48PM 40.2139 -100.1678 88° East 505 581 34,900 -60 Descending Denver Center
03:50PM 40.2178 -99.9925 88° East 506 582 34,900  Level Denver Center
03:51PM 40.2219 -99.7558 89° East 505 581 34,900  Level Denver Center
03:52PM 40.2250 -99.5714 89° East 509 586 35,000  Climbing Denver Center
03:53PM 40.2281 -99.3861 89° East 510 587 35,000  Level Denver Center
03:54PM 40.2314 -99.2014 89° East 511 588 35,000  Level Denver Center
03:55PM 40.2331 -99.0189 89° East 506 582 35,000 -60 Level Denver Center
03:56PM 40.2350 -98.8386 89° East 504 580 34,900 -60 Descending Minneapolis Center
03:57PM 40.2367 -98.6544 89° East 507 583 34,900  Level Minneapolis Center
03:58PM 40.2381 -98.4731 89° East 504 580 34,900  Level Minneapolis Center
03:59PM 40.2389 -98.2908 90° East 504 580 34,900  Level Minneapolis Center
04:00PM 40.2403 -98.1103 89° East 500 575 34,900  Level Minneapolis Center
04:01PM 40.2406 -97.8908 90° East 503 579 35,000  Climbing Minneapolis Center
04:02PM 40.2411 -97.7078 90° East 504 580 35,000 -60 Level Minneapolis Center
04:03PM 40.2417 -97.5256 90° East 503 579 34,900  Descending Minneapolis Center
04:04PM 40.2419 -97.3425 90° East 504 580 35,000  Climbing Minneapolis Center
04:05PM 40.2408 -97.1672 90° East 505 581 35,000  Level Minneapolis Center
04:06PM 40.2406 -96.9836 90° East 506 582 35,000  Level Minneapolis Center
04:07PM 40.2378 -96.7628 91° East 507 583 35,000 -60 Level Minneapolis Center
04:08PM 40.2369 -96.5797 90° East 505 581 34,900 -60 Descending Minneapolis Center
04:09PM 40.2353 -96.3992 91° East 502 578 34,900  Level Minneapolis Center
04:10PM 40.2339 -96.2178 91° East 501 577 34,900  Level Minneapolis Center
04:11PM 40.2314 -96.0361 91° East 501 577 35,000  Climbing Minneapolis Center
04:12PM 40.2283 -95.8531 91° East 505 581 34,900  Descending Minneapolis Center
04:13PM 40.2256 -95.6350 91° East 503 579 35,000  Climbing Minneapolis Center
04:14PM 40.2228 -95.4550 91° East 500 575 35,000 -60 Level Minneapolis Center
04:15PM 40.2189 -95.2758 92° East 497 572 34,900  Descending Minneapolis Center
04:16PM 40.2167 -95.0953 91° East 498 573 35,000  Climbing Minneapolis Center
04:17PM 40.2114 -94.9139 92° East 500 575 34,900 -60 Descending Minneapolis Center
04:18PM 40.2086 -94.7331 91° East 499 574 34,900  Level Minneapolis Center
04:19PM 40.2033 -94.5292 92° East 501 577 35,000  Climbing Minneapolis Center
04:20PM 40.1969 -94.3469 93° East 503 579 35,000  Level Minneapolis Center
04:21PM 40.1936 -94.1658 91° East 504 580 35,000  Level Minneapolis Center
04:22PM 40.1864 -93.9481 92° East 505 581 35,000 -60 Level Minneapolis Center
04:23PM 40.1803 -93.7681 92° East 501 577 34,900 -60 Descending Minneapolis Center
04:24PM 40.1739 -93.5878 93° East 502 578 34,900  Level Minneapolis Center
04:25PM 40.1672 -93.4069 93° East 504 580 34,900  Level Minneapolis Center
04:26PM 40.1594 -93.2269 93° East 502 578 35,000  Climbing Minneapolis Center
04:28PM 40.1517 -93.0111 93° East 502 578 35,000 -60 Level Minneapolis Center
04:29PM 40.1433 -92.8336 93° East 498 573 34,900 -60 Descending Minneapolis Center
04:30PM 40.1364 -92.6550 93° East 503 579 34,900  Level Minneapolis Center
04:31PM 40.1208 -92.4433 95° East 503 579 34,900  Level Kansas City Center
04:32PM 40.1022 -92.2311 96° East 501 577 35,000  Climbing Kansas City Center
04:33PM 40.0861 -92.0572 97° East 493 567 35,000 -60 Level Kansas City Center
04:34PM 40.0694 -91.8847 97° East 486 559 34,900 -60 Descending Kansas City Center
04:35PM 40.0536 -91.7119 97° East 485 558 34,900  Level Kansas City Center
04:36PM 40.0369 -91.5406 97° East 482 555 34,900  Level Kansas City Center
04:37PM 40.0183 -91.3339 97° East 483 556 35,000  Climbing Kansas City Center
04:38PM 39.9986 -91.1614 98° East 485 558 35,000  Level Kansas City Center
04:39PM 39.9825 -90.9881 97° East 486 559 35,000  Level Kansas City Center
04:40PM 39.9631 -90.7931 97° East 483 556 35,000 -60 Level Kansas City Center
04:41PM 39.9442 -90.6194 98° East 485 558 34,900 -60 Descending Kansas City Center
04:42PM 39.9256 -90.4467 98° East 485 558 34,900  Level Kansas City Center
04:43PM 39.9069 -90.2733 98° East 485 558 34,900  Level Kansas City Center
04:44PM 39.8875 -90.0983 98° East 488 562 35,000  Climbing Kansas City Center
04:45PM 39.8675 -89.9219 98° East 493 567 35,000 120 Level Kansas City Center
04:46PM 39.8439 -89.7142 98° East 489 563 35,300 600 Climbing Kansas City Center
04:47PM 39.8403 -89.5375 91° East 493 567 36,300 780 Climbing Kansas City Center
04:48PM 39.8417 -89.3611 89° East 492 566 37,000 240 Climbing Kansas City Center
04:49PM 39.8422 -89.1853 90° East 490 564 36,900  Descending Kansas City Center
04:50PM 39.8422 -89.0094 90° East 489 563 37,000  Climbing Kansas City Center
04:51PM 39.8431 -88.7967 90° East 491 565 37,000  Level Kansas City Center
04:53PM 39.8419 -88.6208 90° East 489 563 37,000 -60 Level Kansas City Center
04:54PM 39.8428 -88.4444 90° East 489 563 36,900 -60 Descending Kansas City Center
04:55PM 39.8403 -88.2681 91° East 489 563 36,900  Level Kansas City Center
04:56PM 39.8381 -88.0731 91° East 489 563 37,000  Climbing Indianapolis Center
04:57PM 39.8369 -87.8617 90° East 489 563 37,000  Level Indianapolis Center
04:58PM 39.8358 -87.6864 90° East 488 562 37,000 -60 Level Indianapolis Center
04:59PM 39.8347 -87.5136 90° East 480 552 36,900 -60 Descending Indianapolis Center
05:00PM 39.8322 -87.3394 91° East 481 554 36,900  Level Indianapolis Center
05:01PM 39.8289 -87.1667 91° East 480 552 36,900  Level Indianapolis Center
05:02PM 39.8261 -86.9592 91° East 481 554 36,900  Level Indianapolis Center
05:03PM 39.8228 -86.7844 91° East 483 556 36,900  Level Indianapolis Center
05:04PM 39.8200 -86.6094 91° East 483 556 37,000  Climbing Indianapolis Center
05:05PM 39.8183 -86.4331 91° East 486 559 37,000 -60 Level Indianapolis Center
05:06PM 39.8369 -86.2575 82° East 490 564 36,900  Descending Indianapolis Center
05:07PM 39.8772 -86.0764 74° East 492 566 37,000  Climbing Indianapolis Center
05:08PM 39.9128 -85.9061 75° East 487 560 37,000  Level Indianapolis Center
05:09PM 39.9481 -85.7367 75° East 486 559 37,000  Level Indianapolis Center
05:10PM 39.9831 -85.5683 75° East 483 556 37,000  Level Indianapolis Center
05:11PM 40.0247 -85.3672 75° East 478 550 37,000 -60 Level Indianapolis Center
05:12PM 40.0581 -85.2028 75° East 471 542 36,900 -60 Descending Indianapolis Center
05:13PM 40.0911 -85.0394 75° East 466 536 36,900  Level Indianapolis Center
05:14PM 40.1269 -84.8653 75° East 465 535 36,900  Level Indianapolis Center
05:15PM 40.1589 -84.6972 76° East 469 540 36,900  Level Indianapolis Center
05:16PM 40.1975 -84.5314 73° East 474 545 36,900  Level Indianapolis Center
05:17PM 40.2633 -84.3822 60° Northeast 470 541 36,900  Level Indianapolis Center
05:19PM 40.3250 -84.2317 62° Northeast 465 535 36,900  Level Indianapolis Center
05:20PM 40.3883 -84.0803 61° Northeast 467 537 36,900  Level Indianapolis Center
05:21PM 40.4647 -83.9047 60° Northeast 468 539 36,900  Level Indianapolis Center
05:22PM 40.5286 -83.7519 61° Northeast 470 541 36,900  Level Indianapolis Center
05:23PM 40.5917 -83.6033 61° Northeast 462 532 36,900  Level Indianapolis Center
05:24PM 40.6556 -83.4539 61° Northeast 461 531 36,900  Level Indianapolis Center
05:25PM 40.7169 -83.3044 62° Northeast 459 528 36,900  Level Indianapolis Center
05:26PM 40.7817 -83.1478 61° Northeast 448 516 36,900  Level Indianapolis Center
05:27PM 40.8414 -83.0025 61° Northeast 447 514 36,900  Level Indianapolis Center
05:28PM 40.9022 -82.8575 61° Northeast 447 514 36,900  Level Indianapolis Center
05:28PM 40.9211 -82.8061 64° Northeast 445 512 36,900 60 Level Cleveland Center
05:29PM 40.9822 -82.6597 61° Northeast 450 518 37,000  Climbing Cleveland Center
05:30PM 41.0408 -82.5158 62° Northeast 438 504 37,000  Level Cleveland Center
05:31PM 41.1017 -82.3686 61° Northeast 443 510 37,000  Level Cleveland Center
05:32PM 41.1519 -82.2183 66° East 448 516 37,000  Level Cleveland Center
05:33PM 41.1878 -82.0317 76° East 449 517 37,000 -60 Level Cleveland Center
05:34PM 41.2189 -81.8722 75° East 454 522 36,900 -60 Descending Cleveland Center
05:35PM 41.2478 -81.7044 77° East 454 522 36,900  Level Cleveland Center
05:36PM 41.2764 -81.5419 77° East 449 517 36,900  Level Cleveland Center
05:37PM 41.3006 -81.3875 78° East 458 527 36,900  Level Cleveland Center
05:38PM 41.3286 -81.2219 77° East 464 534 37,000  Climbing Cleveland Center
05:39PM 41.3586 -81.0533 77° East 464 534 37,000 -60 Level Cleveland Center
05:40PM 41.3864 -80.8875 77° East 464 534 36,900 -60 Descending Cleveland Center
05:41PM 41.4181 -80.7022 77° East 470 541 36,900  Level Cleveland Center
05:42PM 41.4450 -80.5333 78° East 463 533 37,000  Climbing Cleveland Center
05:43PM 41.4742 -80.3614 77° East 469 540 37,000  Level Cleveland Center
05:44PM 41.5050 -80.1894 76° East 469 540 37,000  Level Cleveland Center
05:45PM 41.5314 -80.0200 78° East 469 540 37,000 -60 Level Cleveland Center
05:46PM 41.5553 -79.8506 79° East 469 540 36,900 -60 Descending Cleveland Center
05:47PM 41.5814 -79.6950 77° East 469 540 36,900  Level Cleveland Center
05:48PM 41.6092 -79.5222 78° East 469 540 36,900  Level Cleveland Center
05:49PM 41.6367 -79.3525 78° East 469 540 36,900  Level Cleveland Center
05:50PM 41.6469 -79.1742 86° East 469 540 37,000  Climbing Cleveland Center
05:51PM 41.6322 -78.9914 96° East 476 548 37,000  Level Cleveland Center
05:52PM 41.6128 -78.8111 98° East 476 548 37,000 -420 Level Cleveland Center
05:53PM 41.5911 -78.6286 99° East 481 554 36,200 -900 Descending Cleveland Center
05:54PM 41.5711 -78.4433 98° East 486 559 35,200 -1,200 Descending Cleveland Center
05:55PM 41.5467 -78.2608 100° East 493 567 33,900 -1,260 Descending Cleveland Center
05:57PM 41.5028 -77.9067 99° East 487 560 31,600 -1,020 Descending New York Center
05:58PM 41.4797 -77.7325 100° East 481 554 30,900 -900 Descending New York Center
05:59PM 41.4547 -77.5556 101° East 470 541 29,800 -1,020 Descending New York Center
06:00PM 41.4286 -77.3869 102° East 475 547 28,900 -420 Descending New York Center
06:01PM 41.4028 -77.2128 101° East 475 547 29,000  Climbing New York Center
06:02PM 41.3769 -77.0361 101° East 475 547 28,900 -900 Descending New York Center
06:03PM 41.3506 -76.8594 101° East 475 547 27,300 -1,740 Descending New York Center
06:04PM 41.3136 -76.6875 106° East 475 547 25,400 -1,920 Descending New York Center
06:05PM 41.2694 -76.5264 110° East 475 547 23,500 -1,920 Descending New York Center
06:06PM 41.2269 -76.3683 110° East 469 540 21,700 -1,800 Descending New York Center
06:07PM 41.1842 -76.2131 110° East 450 518 19,900 -1,920 Descending New York Center
06:08PM 41.1506 -76.0836 109° East 429 494 17,900 -2,100 Descending New York Center
06:09PM 41.1075 -75.9261 110° East 418 481 15,800 -1,980 Descending New York Center
06:10PM 41.0697 -75.7856 110° East 413 475 14,000 -1,440 Descending New York Center
06:11PM 41.0353 -75.6619 110° East 403 464 13,000 -540 Descending New York Center
06:12PM 40.9956 -75.5133 109° East 394 453 13,000 -180 Level New York Center
06:13PM 40.9628 -75.3956 110° East 388 447 12,700 -960 Descending New York Center
06:14PM 40.9239 -75.2667 112° Southeast 362 417 11,100 -1,440 Descending New York Center
06:15PM 40.8931 -75.1494 109° East 347 399 9,900 -1,260 Descending New York Center
06:16PM 40.8614 -75.0403 111° Southeast 327 376 8,600 -1,440 Descending New York Center
06:17PM 40.8336 -74.9453 111° Southeast 313 360 7,000 -1,140 Descending New York Center
06:18PM 40.8250 -74.8350 96° East 303 349 6,400 -540 Descending New York Center
06:19PM 40.8228 -74.7197 91° East 286 329 6,000 -240 Descending New York Center
06:20PM 40.8406 -74.6219 76° East 274 315 6,000 -300 Level New York Center
06:21PM 40.8000 -74.5667 134° Southeast 293 337 5,500 -660 Descending New York TRACON
06:22PM 40.7333 -74.5500 169° South 281 323 5,000 -300 Descending New York TRACON
06:23PM 40.6500 -74.5167 163° South 281 323 5,000  Level New York TRACON
06:24PM 40.5833 -74.4833 159° South 270 311 5,000 -480 Level New York TRACON
06:25PM 40.5167 -74.4333 150° Southeast 254 292 4,100 -540 Descending New York TRACON
06:26PM 40.4833 -74.3667 123° Southeast 231 266 4,000 -120 Descending New York TRACON
06:27PM 40.5167 -74.3000 57° Northeast 201 231 3,900 -660 Descending New York TRACON
06:28PM 40.5500 -74.2500 49° Northeast 190 219 2,700 -1,200 Descending New York TRACON